sensor_id;sensor_type;location;lat;lon;timestamp;pressure;altitude;pressure_sealevel;temperature;humidity
20860;BME280;10590;48.154;11.514;2023-05-19T00:02:03;96138.50;;;9.06;72.04
20860;BME280;10590;48.154;11.514;2023-05-19T00:07:32;96139.03;;;9.21;71.11
20860;BME280;10590;48.154;11.514;2023-05-19T00:12:56;96133.50;;;9.18;72.06
20860;BME280;10590;48.154;11.514;2023-05-19T00:18:18;96112.28;;;8.99;72.27
20860;BME280;10590;48.154;11.514;2023-05-19T00:23:42;96127.41;;;9.17;72.24
20860;BME280;10590;48.154;11.514;2023-05-19T00:29:04;96111.53;;;9.26;71.99
20860;BME280;10590;48.154;11.514;2023-05-19T00:34:26;96117.25;;;9.33;71.79
20860;BME280;10590;48.154;11.514;2023-05-19T00:39:50;96119.03;;;9.24;72.28
20860;BME280;10590;48.154;11.514;2023-05-19T00:45:13;96095.66;;;9.35;72.08
20860;BME280;10590;48.154;11.514;2023-05-19T00:50:35;96110.44;;;9.13;72.90
20860;BME280;10590;48.154;11.514;2023-05-19T00:55:59;96111.44;;;9.31;72.46
20860;BME280;10590;48.154;11.514;2023-05-19T01:01:21;96095.56;;;9.26;72.95
20860;BME280;10590;48.154;11.514;2023-05-19T01:06:46;96094.28;;;9.37;72.51
20860;BME280;10590;48.154;11.514;2023-05-19T01:12:10;96093.19;;;9.38;72.41
20860;BME280;10590;48.154;11.514;2023-05-19T01:17:38;96092.81;;;9.31;72.52
20860;BME280;10590;48.154;11.514;2023-05-19T01:23:22;96098.91;;;9.32;72.55
20860;BME280;10590;48.154;11.514;2023-05-19T01:29:21;96100.06;;;9.12;73.15
20860;BME280;10590;48.154;11.514;2023-05-19T01:34:52;96101.06;;;9.16;73.52
20860;BME280;10590;48.154;11.514;2023-05-19T01:40:15;96106.06;;;9.04;73.87
20860;BME280;10590;48.154;11.514;2023-05-19T01:45:39;96110.50;;;8.94;73.99
20860;BME280;10590;48.154;11.514;2023-05-19T01:51:02;96108.31;;;8.97;73.83
20860;BME280;10590;48.154;11.514;2023-05-19T01:56:32;96102.59;;;8.89;74.03
20860;BME280;10590;48.154;11.514;2023-05-19T02:01:56;96108.41;;;8.91;74.25
20860;BME280;10590;48.154;11.514;2023-05-19T02:07:29;96094.94;;;8.69;74.56
20860;BME280;10590;48.154;11.514;2023-05-19T02:12:53;96096.09;;;8.96;74.15
20860;BME280;10590;48.154;11.514;2023-05-19T02:18:17;96091.63;;;8.77;74.50
20860;BME280;10590;48.154;11.514;2023-05-19T02:23:41;96091.34;;;8.79;74.75
20860;BME280;10590;48.154;11.514;2023-05-19T02:29:03;96090.19;;;8.99;73.99
20860;BME280;10590;48.154;11.514;2023-05-19T02:34:26;96086.59;;;8.76;74.57
20860;BME280;10590;48.154;11.514;2023-05-19T02:39:49;96081.47;;;8.79;74.80
20860;BME280;10590;48.154;11.514;2023-05-19T02:45:11;96081.41;;;8.84;74.56
20860;BME280;10590;48.154;11.514;2023-05-19T02:50:33;96080.72;;;8.92;74.60
20860;BME280;10590;48.154;11.514;2023-05-19T02:55:57;96083.56;;;8.63;75.54
20860;BME280;10590;48.154;11.514;2023-05-19T03:01:19;96080.50;;;8.89;74.59
20860;BME280;10590;48.154;11.514;2023-05-19T03:06:42;96068.88;;;8.85;74.94
20860;BME280;10590;48.154;11.514;2023-05-19T03:12:07;96071.13;;;8.78;75.14
20860;BME280;10590;48.154;11.514;2023-05-19T03:17:29;96070.50;;;8.67;75.54
20860;BME280;10590;48.154;11.514;2023-05-19T03:22:53;96069.44;;;8.68;75.62
20860;BME280;10590;48.154;11.514;2023-05-19T03:28:18;96054.84;;;8.47;76.28
20860;BME280;10590;48.154;11.514;2023-05-19T03:33:40;96064.09;;;8.68;75.91
20860;BME280;10590;48.154;11.514;2023-05-19T03:39:03;96063.31;;;8.68;75.98
20860;BME280;10590;48.154;11.514;2023-05-19T03:44:26;96061.50;;;8.63;76.33
20860;BME280;10590;48.154;11.514;2023-05-19T03:49:48;96053.00;;;8.47;76.83
20860;BME280;10590;48.154;11.514;2023-05-19T03:55:10;96059.63;;;8.63;76.27
20860;BME280;10590;48.154;11.514;2023-05-19T04:00:35;96061.47;;;8.49;77.16
20860;BME280;10590;48.154;11.514;2023-05-19T04:05:57;96062.09;;;8.60;76.84
20860;BME280;10590;48.154;11.514;2023-05-19T04:11:19;96064.69;;;8.27;77.87
20860;BME280;10590;48.154;11.514;2023-05-19T04:16:43;96051.53;;;8.55;76.90
20860;BME280;10590;48.154;11.514;2023-05-19T04:22:05;96051.91;;;8.81;76.08
20860;BME280;10590;48.154;11.514;2023-05-19T04:27:27;96053.88;;;8.75;76.55
20860;BME280;10590;48.154;11.514;2023-05-19T04:32:53;96061.41;;;8.87;76.12
20860;BME280;10590;48.154;11.514;2023-05-19T04:38:17;96058.03;;;8.81;76.66
20860;BME280;10590;48.154;11.514;2023-05-19T04:43:39;96056.09;;;9.01;76.23
20860;BME280;10590;48.154;11.514;2023-05-19T04:49:05;96056.19;;;8.63;77.38
20860;BME280;10590;48.154;11.514;2023-05-19T04:54:28;96048.50;;;8.94;76.07
20860;BME280;10590;48.154;11.514;2023-05-19T04:59:50;96050.19;;;9.04;76.10
20860;BME280;10590;48.154;11.514;2023-05-19T05:05:14;96031.25;;;9.05;75.69
20860;BME280;10590;48.154;11.514;2023-05-19T05:10:36;96039.34;;;9.41;74.45
20860;BME280;10590;48.154;11.514;2023-05-19T05:15:59;96028.78;;;9.09;75.79
20860;BME280;10590;48.154;11.514;2023-05-19T05:21:24;96040.44;;;9.13;75.88
20860;BME280;10590;48.154;11.514;2023-05-19T05:26:46;96036.19;;;9.12;75.38
20860;BME280;10590;48.154;11.514;2023-05-19T05:32:08;96037.88;;;9.63;74.18
20860;BME280;10590;48.154;11.514;2023-05-19T05:37:31;96037.47;;;10.05;72.75
20860;BME280;10590;48.154;11.514;2023-05-19T05:42:55;96040.53;;;10.48;70.91
20860;BME280;10590;48.154;11.514;2023-05-19T05:48:19;96047.22;;;10.24;71.99
20860;BME280;10590;48.154;11.514;2023-05-19T05:53:43;96050.66;;;10.24;71.65
20860;BME280;10590;48.154;11.514;2023-05-19T05:59:08;96045.44;;;10.55;70.75
20860;BME280;10590;48.154;11.514;2023-05-19T06:04:30;96034.25;;;11.06;69.17
20860;BME280;10590;48.154;11.514;2023-05-19T06:09:54;96039.19;;;11.61;66.78
20860;BME280;10590;48.154;11.514;2023-05-19T06:15:16;96039.25;;;11.96;65.23
20860;BME280;10590;48.154;11.514;2023-05-19T06:20:38;96043.31;;;10.66;69.36
20860;BME280;10590;48.154;11.514;2023-05-19T06:26:01;96044.19;;;10.83;68.51
20860;BME280;10590;48.154;11.514;2023-05-19T06:31:23;96036.44;;;12.09;64.69
20860;BME280;10590;48.154;11.514;2023-05-19T06:36:45;96034.41;;;12.58;63.18
20860;BME280;10590;48.154;11.514;2023-05-19T06:42:09;96037.88;;;12.33;63.68
20860;BME280;10590;48.154;11.514;2023-05-19T06:47:31;96034.09;;;11.42;66.05
20860;BME280;10590;48.154;11.514;2023-05-19T06:52:53;96039.94;;;11.13;67.01
20860;BME280;10590;48.154;11.514;2023-05-19T06:58:18;96037.28;;;11.62;65.67
20860;BME280;10590;48.154;11.514;2023-05-19T07:03:40;96039.97;;;11.62;65.31
20860;BME280;10590;48.154;11.514;2023-05-19T07:09:02;96043.91;;;11.73;64.37
20860;BME280;10590;48.154;11.514;2023-05-19T07:14:26;96040.19;;;13.71;57.31
20860;BME280;10590;48.154;11.514;2023-05-19T07:19:48;96050.31;;;12.46;60.95
20860;BME280;10590;48.154;11.514;2023-05-19T07:25:10;96038.81;;;12.02;62.57
20860;BME280;10590;48.154;11.514;2023-05-19T07:30:33;96034.63;;;11.62;63.87
20860;BME280;10590;48.154;11.514;2023-05-19T07:35:55;96046.78;;;11.28;65.43
20860;BME280;10590;48.154;11.514;2023-05-19T07:41:17;96036.31;;;12.15;62.96
20860;BME280;10590;48.154;11.514;2023-05-19T07:46:41;96036.78;;;12.42;62.85
20860;BME280;10590;48.154;11.514;2023-05-19T07:52:03;96037.69;;;12.12;63.25
20860;BME280;10590;48.154;11.514;2023-05-19T07:57:25;96040.09;;;12.31;62.39
20860;BME280;10590;48.154;11.514;2023-05-19T08:02:48;96039.78;;;12.24;62.76
20860;BME280;10590;48.154;11.514;2023-05-19T08:08:10;96035.97;;;12.59;62.17
20860;BME280;10590;48.154;11.514;2023-05-19T08:13:38;96030.59;;;11.90;64.23
20860;BME280;10590;48.154;11.514;2023-05-19T08:19:01;96035.97;;;12.07;63.48
20860;BME280;10590;48.154;11.514;2023-05-19T08:24:24;96035.94;;;11.82;63.80
20860;BME280;10590;48.154;11.514;2023-05-19T08:29:48;96029.09;;;11.49;65.31
20860;BME280;10590;48.154;11.514;2023-05-19T08:35:12;96029.25;;;11.53;65.11
20860;BME280;10590;48.154;11.514;2023-05-19T08:40:36;96032.19;;;12.08;64.23
20860;BME280;10590;48.154;11.514;2023-05-19T08:45:59;96032.91;;;11.74;64.65
20860;BME280;10590;48.154;11.514;2023-05-19T08:51:29;96027.22;;;11.59;64.75
20860;BME280;10590;48.154;11.514;2023-05-19T08:56:54;96034.44;;;12.24;63.00
20860;BME280;10590;48.154;11.514;2023-05-19T09:02:17;96033.59;;;11.80;64.03
20860;BME280;10590;48.154;11.514;2023-05-19T09:07:42;96029.81;;;11.81;64.37
20860;BME280;10590;48.154;11.514;2023-05-19T09:13:04;96025.25;;;11.82;64.03
20860;BME280;10590;48.154;11.514;2023-05-19T09:18:27;96020.53;;;11.87;63.65
20860;BME280;10590;48.154;11.514;2023-05-19T09:23:50;96029.06;;;12.24;63.04
20860;BME280;10590;48.154;11.514;2023-05-19T09:29:13;96011.75;;;12.47;61.85
20860;BME280;10590;48.154;11.514;2023-05-19T09:34:39;96020.25;;;12.40;61.79
20860;BME280;10590;48.154;11.514;2023-05-19T09:40:05;96025.41;;;13.35;59.13
20860;BME280;10590;48.154;11.514;2023-05-19T09:45:28;96017.44;;;13.77;58.39
20860;BME280;10590;48.154;11.514;2023-05-19T09:50:51;96011.75;;;13.20;59.84
20860;BME280;10590;48.154;11.514;2023-05-19T09:56:15;96017.84;;;12.65;60.49
20860;BME280;10590;48.154;11.514;2023-05-19T10:01:37;96011.63;;;12.99;60.05
20860;BME280;10590;48.154;11.514;2023-05-19T10:07:04;96016.25;;;12.81;60.53
20860;BME280;10590;48.154;11.514;2023-05-19T10:12:29;96007.53;;;13.01;59.72
20860;BME280;10590;48.154;11.514;2023-05-19T10:17:53;96009.53;;;13.13;59.01
20860;BME280;10590;48.154;11.514;2023-05-19T10:23:19;96005.94;;;12.28;61.73
20860;BME280;10590;48.154;11.514;2023-05-19T10:28:44;96011.28;;;12.19;63.02
20860;BME280;10590;48.154;11.514;2023-05-19T10:34:20;96011.78;;;12.94;60.95
20860;BME280;10590;48.154;11.514;2023-05-19T10:39:44;96003.34;;;12.66;61.52
20860;BME280;10590;48.154;11.514;2023-05-19T10:45:13;96009.44;;;13.01;60.36
20860;BME280;10590;48.154;11.514;2023-05-19T10:50:38;96022.09;;;12.66;61.16
20860;BME280;10590;48.154;11.514;2023-05-19T10:56:01;96005.41;;;12.69;60.95
20860;BME280;10590;48.154;11.514;2023-05-19T11:01:29;95996.00;;;13.10;59.74
20860;BME280;10590;48.154;11.514;2023-05-19T11:06:53;95995.47;;;12.69;60.83
20860;BME280;10590;48.154;11.514;2023-05-19T11:12:19;95996.13;;;12.66;61.32
20860;BME280;10590;48.154;11.514;2023-05-19T11:17:47;96004.78;;;12.63;61.73
20860;BME280;10590;48.154;11.514;2023-05-19T11:23:14;95996.53;;;12.86;61.21
20860;BME280;10590;48.154;11.514;2023-05-19T11:28:37;95993.03;;;13.02;60.57
20860;BME280;10590;48.154;11.514;2023-05-19T11:34:01;95986.66;;;13.54;59.34
20860;BME280;10590;48.154;11.514;2023-05-19T11:39:26;95985.25;;;13.77;58.39
20860;BME280;10590;48.154;11.514;2023-05-19T11:44:49;95996.50;;;13.70;58.56
20860;BME280;10590;48.154;11.514;2023-05-19T11:50:17;95987.84;;;13.94;57.90
20860;BME280;10590;48.154;11.514;2023-05-19T11:55:44;95998.06;;;13.04;60.63
20860;BME280;10590;48.154;11.514;2023-05-19T12:01:06;95994.16;;;12.84;61.05
20860;BME280;10590;48.154;11.514;2023-05-19T12:06:32;95994.41;;;13.17;60.30
20860;BME280;10590;48.154;11.514;2023-05-19T12:11:54;96007.34;;;12.42;62.50
20860;BME280;10590;48.154;11.514;2023-05-19T12:17:17;96001.59;;;12.79;61.86
20860;BME280;10590;48.154;11.514;2023-05-19T12:22:41;96001.69;;;12.27;62.98
20860;BME280;10590;48.154;11.514;2023-05-19T12:28:04;96006.50;;;12.68;62.29
20860;BME280;10590;48.154;11.514;2023-05-19T12:33:31;95999.78;;;12.36;63.47
20860;BME280;10590;48.154;11.514;2023-05-19T12:39:03;95999.00;;;12.09;64.39
20860;BME280;10590;48.154;11.514;2023-05-19T12:44:26;95991.91;;;11.79;65.54
20860;BME280;10590;48.154;11.514;2023-05-19T12:49:54;95996.69;;;12.81;63.28
20860;BME280;10590;48.154;11.514;2023-05-19T12:55:18;95994.28;;;13.05;61.87
20860;BME280;10590;48.154;11.514;2023-05-19T13:00:42;95995.06;;;12.97;61.84
20860;BME280;10590;48.154;11.514;2023-05-19T13:06:06;95994.06;;;13.27;61.11
20860;BME280;10590;48.154;11.514;2023-05-19T13:11:30;95976.94;;;13.11;61.17
20860;BME280;10590;48.154;11.514;2023-05-19T13:16:54;95978.41;;;14.63;57.26
20860;BME280;10590;48.154;11.514;2023-05-19T13:22:16;95967.06;;;16.84;51.38
20860;BME280;10590;48.154;11.514;2023-05-19T13:27:42;95961.53;;;16.09;51.88
20860;BME280;10590;48.154;11.514;2023-05-19T13:33:06;95957.16;;;16.88;50.18
20860;BME280;10590;48.154;11.514;2023-05-19T13:38:29;95946.25;;;15.48;53.81
20860;BME280;10590;48.154;11.514;2023-05-19T13:43:53;95936.75;;;15.63;53.40
20860;BME280;10590;48.154;11.514;2023-05-19T13:49:15;95938.88;;;14.96;56.10
20860;BME280;10590;48.154;11.514;2023-05-19T13:54:37;95935.56;;;17.19;50.79
20860;BME280;10590;48.154;11.514;2023-05-19T14:00:00;95929.06;;;17.36;49.42
20860;BME280;10590;48.154;11.514;2023-05-19T14:05:24;95929.69;;;15.22;55.22
20860;BME280;10590;48.154;11.514;2023-05-19T14:10:49;95915.47;;;15.09;56.86
20860;BME280;10590;48.154;11.514;2023-05-19T14:16:12;95910.03;;;14.60;57.76
20860;BME280;10590;48.154;11.514;2023-05-19T14:21:34;95916.50;;;14.47;58.39
20860;BME280;10590;48.154;11.514;2023-05-19T14:26:57;95913.09;;;13.84;60.29
20860;BME280;10590;48.154;11.514;2023-05-19T14:32:21;95921.69;;;14.64;58.44
20860;BME280;10590;48.154;11.514;2023-05-19T14:37:44;95906.09;;;13.71;61.59
20860;BME280;10590;48.154;11.514;2023-05-19T14:43:06;95911.53;;;14.37;59.54
20860;BME280;10590;48.154;11.514;2023-05-19T14:48:30;95912.47;;;14.53;59.24
20860;BME280;10590;48.154;11.514;2023-05-19T14:53:52;95920.69;;;14.69;58.82
20860;BME280;10590;48.154;11.514;2023-05-19T14:59:14;95909.59;;;14.71;59.37
20860;BME280;10590;48.154;11.514;2023-05-19T15:04:37;95909.47;;;14.55;59.49
20860;BME280;10590;48.154;11.514;2023-05-19T15:09:59;95911.38;;;14.54;61.54
20860;BME280;10590;48.154;11.514;2023-05-19T15:15:22;95912.53;;;14.78;59.81
20860;BME280;10590;48.154;11.514;2023-05-19T15:20:45;95896.06;;;14.67;60.67
20860;BME280;10590;48.154;11.514;2023-05-19T15:26:07;95890.25;;;14.32;61.74
20860;BME280;10590;48.154;11.514;2023-05-19T15:31:29;95889.16;;;15.03;59.87
20860;BME280;10590;48.154;11.514;2023-05-19T15:36:52;95886.69;;;15.10;59.48
20860;BME280;10590;48.154;11.514;2023-05-19T15:42:14;95873.72;;;15.52;58.65
20860;BME280;10590;48.154;11.514;2023-05-19T15:47:36;95884.78;;;14.86;59.77
20860;BME280;10590;48.154;11.514;2023-05-19T15:52:59;95876.66;;;15.59;58.64
20860;BME280;10590;48.154;11.514;2023-05-19T15:58:21;95870.25;;;16.04;57.00
20860;BME280;10590;48.154;11.514;2023-05-19T16:03:44;95864.81;;;16.16;57.01
20860;BME280;10590;48.154;11.514;2023-05-19T16:09:07;95860.28;;;15.52;59.15
20860;BME280;10590;48.154;11.514;2023-05-19T16:14:29;95860.13;;;16.29;57.22
20860;BME280;10590;48.154;11.514;2023-05-19T16:19:55;95853.44;;;15.54;58.91
20860;BME280;10590;48.154;11.514;2023-05-19T16:25:19;95843.53;;;15.30;60.42
20860;BME280;10590;48.154;11.514;2023-05-19T16:30:41;95836.13;;;15.40;59.86
20860;BME280;10590;48.154;11.514;2023-05-19T16:36:03;95828.69;;;15.09;60.72
20860;BME280;10590;48.154;11.514;2023-05-19T16:41:27;95828.53;;;15.29;60.74
20860;BME280;10590;48.154;11.514;2023-05-19T16:46:49;95828.34;;;14.98;61.12
20860;BME280;10590;48.154;11.514;2023-05-19T16:52:11;95827.84;;;15.33;60.21
20860;BME280;10590;48.154;11.514;2023-05-19T16:57:34;95814.31;;;15.57;60.35
20860;BME280;10590;48.154;11.514;2023-05-19T17:02:56;95813.97;;;15.30;60.04
20860;BME280;10590;48.154;11.514;2023-05-19T17:08:18;95812.44;;;15.17;61.40
20860;BME280;10590;48.154;11.514;2023-05-19T17:13:41;95806.41;;;15.08;61.44
20860;BME280;10590;48.154;11.514;2023-05-19T17:19:03;95809.66;;;15.02;61.68
20860;BME280;10590;48.154;11.514;2023-05-19T17:24:25;95810.78;;;15.01;61.94
20860;BME280;10590;48.154;11.514;2023-05-19T17:29:49;95808.97;;;15.05;61.77
20860;BME280;10590;48.154;11.514;2023-05-19T17:35:11;95814.81;;;15.47;60.84
20860;BME280;10590;48.154;11.514;2023-05-19T17:40:33;95819.34;;;15.30;61.17
20860;BME280;10590;48.154;11.514;2023-05-19T17:45:57;95817.00;;;15.17;61.63
20860;BME280;10590;48.154;11.514;2023-05-19T17:51:20;95811.19;;;15.15;61.60
20860;BME280;10590;48.154;11.514;2023-05-19T17:56:43;95803.63;;;14.92;62.67
20860;BME280;10590;48.154;11.514;2023-05-19T18:02:08;95803.72;;;15.08;62.22
20860;BME280;10590;48.154;11.514;2023-05-19T18:07:31;95810.28;;;15.23;61.88
20860;BME280;10590;48.154;11.514;2023-05-19T18:12:53;95800.31;;;15.23;61.88
20860;BME280;10590;48.154;11.514;2023-05-19T18:18:16;95809.47;;;15.35;61.95
20860;BME280;10590;48.154;11.514;2023-05-19T18:23:39;95811.00;;;15.48;61.82
20860;BME280;10590;48.154;11.514;2023-05-19T18:29:01;95810.91;;;15.84;60.93
20860;BME280;10590;48.154;11.514;2023-05-19T18:34:25;95805.53;;;15.84;61.18
20860;BME280;10590;48.154;11.514;2023-05-19T18:39:49;95790.19;;;15.33;63.58
20860;BME280;10590;48.154;11.514;2023-05-19T18:45:11;95789.38;;;15.44;64.14
20860;BME280;10590;48.154;11.514;2023-05-19T18:50:35;95800.00;;;15.65;63.10
20860;BME280;10590;48.154;11.514;2023-05-19T18:55:57;95798.53;;;15.68;63.46
20860;BME280;10590;48.154;11.514;2023-05-19T19:01:18;95804.94;;;15.11;65.87
20860;BME280;10590;48.154;11.514;2023-05-19T19:06:42;95804.59;;;15.65;64.07
20860;BME280;10590;48.154;11.514;2023-05-19T19:12:04;95803.91;;;15.68;64.39
20860;BME280;10590;48.154;11.514;2023-05-19T19:17:26;95804.09;;;15.35;65.73
20860;BME280;10590;48.154;11.514;2023-05-19T19:22:49;95813.81;;;14.99;67.71
20860;BME280;10590;48.154;11.514;2023-05-19T19:28:12;95821.19;;;15.02;66.79
20860;BME280;10590;48.154;11.514;2023-05-19T19:33:34;95823.00;;;15.38;65.78
20860;BME280;10590;48.154;11.514;2023-05-19T19:38:57;95822.44;;;15.45;65.35
20860;BME280;10590;48.154;11.514;2023-05-19T19:44:19;95811.31;;;15.58;64.98
20860;BME280;10590;48.154;11.514;2023-05-19T19:49:42;95821.13;;;15.26;66.86
20860;BME280;10590;48.154;11.514;2023-05-19T19:55:08;95820.28;;;15.10;67.21
20860;BME280;10590;48.154;11.514;2023-05-19T20:00:30;95815.56;;;15.19;67.02
20860;BME280;10590;48.154;11.514;2023-05-19T20:05:53;95811.84;;;15.24;66.97
20860;BME280;10590;48.154;11.514;2023-05-19T20:11:16;95809.75;;;15.05;68.03
20860;BME280;10590;48.154;11.514;2023-05-19T20:16:39;95803.06;;;14.62;70.48
20860;BME280;10590;48.154;11.514;2023-05-19T20:22:01;95794.25;;;14.74;69.96
20860;BME280;10590;48.154;11.514;2023-05-19T20:27:24;95798.56;;;14.42;71.29
20860;BME280;10590;48.154;11.514;2023-05-19T20:32:46;95791.78;;;14.81;69.83
20860;BME280;10590;48.154;11.514;2023-05-19T20:38:08;95790.66;;;14.82;69.51
20860;BME280;10590;48.154;11.514;2023-05-19T20:43:31;95778.44;;;14.85;69.97
20860;BME280;10590;48.154;11.514;2023-05-19T20:48:53;95787.81;;;15.03;68.58
20860;BME280;10590;48.154;11.514;2023-05-19T20:54:15;95780.22;;;14.56;69.32
20860;BME280;10590;48.154;11.514;2023-05-19T20:59:40;95793.84;;;14.39;69.99
20860;BME280;10590;48.154;11.514;2023-05-19T21:05:02;95778.09;;;14.62;68.93
20860;BME280;10590;48.154;11.514;2023-05-19T21:10:24;95787.34;;;14.40;70.03
20860;BME280;10590;48.154;11.514;2023-05-19T21:15:48;95780.88;;;14.29;70.81
20860;BME280;10590;48.154;11.514;2023-05-19T21:21:09;95774.50;;;14.33;70.78
20860;BME280;10590;48.154;11.514;2023-05-19T21:26:31;95773.03;;;14.36;70.57
20860;BME280;10590;48.154;11.514;2023-05-19T21:31:54;95790.91;;;14.20;70.97
20860;BME280;10590;48.154;11.514;2023-05-19T21:37:19;95782.09;;;14.19;71.16
20860;BME280;10590;48.154;11.514;2023-05-19T21:42:41;95776.84;;;14.23;70.62
20860;BME280;10590;48.154;11.514;2023-05-19T21:48:04;95778.41;;;14.36;70.36
20860;BME280;10590;48.154;11.514;2023-05-19T21:53:26;95774.34;;;14.06;71.23
20860;BME280;10590;48.154;11.514;2023-05-19T21:58:48;95776.06;;;13.77;71.72
20860;BME280;10590;48.154;11.514;2023-05-19T22:04:11;95770.47;;;13.82;71.65
20860;BME280;10590;48.154;11.514;2023-05-19T22:09:34;95763.84;;;13.67;71.84
20860;BME280;10590;48.154;11.514;2023-05-19T22:14:56;95760.00;;;13.56;72.21
20860;BME280;10590;48.154;11.514;2023-05-19T22:20:19;95762.69;;;13.56;72.22
20860;BME280;10590;48.154;11.514;2023-05-19T22:25:41;95748.47;;;13.44;72.88
20860;BME280;10590;48.154;11.514;2023-05-19T22:31:03;95739.59;;;13.31;73.11
20860;BME280;10590;48.154;11.514;2023-05-19T22:36:27;95752.41;;;13.25;73.70
20860;BME280;10590;48.154;11.514;2023-05-19T22:41:49;95750.09;;;13.15;74.11
20860;BME280;10590;48.154;11.514;2023-05-19T22:47:10;95761.94;;;13.14;74.09
20860;BME280;10590;48.154;11.514;2023-05-19T22:52:34;95754.22;;;13.13;74.54
20860;BME280;10590;48.154;11.514;2023-05-19T22:57:57;95752.06;;;13.06;74.79
20860;BME280;10590;48.154;11.514;2023-05-19T23:03:18;95755.16;;;13.17;74.64
20860;BME280;10590;48.154;11.514;2023-05-19T23:08:43;95759.81;;;12.78;76.20
20860;BME280;10590;48.154;11.514;2023-05-19T23:14:05;95753.19;;;13.05;75.35
20860;BME280;10590;48.154;11.514;2023-05-19T23:19:27;95743.28;;;12.97;75.64
20860;BME280;10590;48.154;11.514;2023-05-19T23:24:52;95736.31;;;13.04;75.39
20860;BME280;10590;48.154;11.514;2023-05-19T23:30:14;95727.06;;;13.02;75.46
20860;BME280;10590;48.154;11.514;2023-05-19T23:35:36;95726.09;;;12.98;75.48
20860;BME280;10590;48.154;11.514;2023-05-19T23:41:00;95717.13;;;13.02;75.09
20860;BME280;10590;48.154;11.514;2023-05-19T23:46:22;95716.63;;;12.80;75.87
20860;BME280;10590;48.154;11.514;2023-05-19T23:51:44;95702.97;;;12.93;75.10
20860;BME280;10590;48.154;11.514;2023-05-19T23:57:07;95704.75;;;12.89;75.41
